Time;durP1;ratioP1;P1;durP2;ratioP2;P2;SDS_P1;SDS_P2;PMS_P1;PMS_P2;Temp;Humidity;BMP_temperature;BMP_pressure;BME280_temperature;BME280_humidity;BME280_pressure;Samples;Min_cycle;Max_cycle;Signal;HPM_P1;HPM_P2
2023/07/04 00:01:59;;;;;;;14.15;4.20;;;;;;;17.24;56.07;100214.78;4982528;28;20185;-58
2023/07/04 00:04:29;;;;;;;13.32;4.45;;;;;;;17.24;56.33;100220.13;4987350;28;20132;-59
2023/07/04 00:06:57;;;;;;;10.68;3.88;;;;;;;17.25;56.01;100219.16;4983688;28;20104;-60
2023/07/04 00:09:24;;;;;;;16.52;5.13;;;;;;;17.23;56.18;100215.78;4988123;28;20519;-59
2023/07/04 00:11:51;;;;;;;13.98;4.43;;;;;;;17.22;56.08;100212.28;4999246;28;20060;-59
2023/07/04 00:14:18;;;;;;;12.10;5.10;;;;;;;17.20;56.20;100204.47;4990379;28;20054;-58
2023/07/04 00:16:46;;;;;;;11.15;4.13;;;;;;;17.20;56.03;100208.91;4991798;28;20089;-59
2023/07/04 00:19:14;;;;;;;12.48;3.90;;;;;;;17.20;56.20;100201.78;4991284;28;20066;-60
2023/07/04 00:21:41;;;;;;;8.38;4.15;;;;;;;17.19;56.40;100205.41;4984505;28;20055;-59
2023/07/04 00:24:10;;;;;;;11.85;4.32;;;;;;;17.21;56.33;100200.81;4988184;28;20104;-59
2023/07/04 00:26:37;;;;;;;9.07;4.13;;;;;;;17.22;56.32;100206.97;4988944;28;20050;-59
2023/07/04 00:29:04;;;;;;;11.85;3.75;;;;;;;17.24;56.41;100212.13;4986736;28;20042;-60
2023/07/04 00:31:32;;;;;;;8.57;3.85;;;;;;;17.21;56.43;100211.44;4984600;28;20134;-58
2023/07/04 00:33:59;;;;;;;13.30;4.22;;;;;;;17.20;56.54;100209.78;4989021;28;20158;-61
2023/07/04 00:36:29;;;;;;;12.95;4.63;;;;;;;17.20;56.68;100203.59;4986519;28;20141;-60
2023/07/04 00:38:56;;;;;;;16.60;5.35;;;;;;;17.16;56.82;100202.22;4985834;28;20096;-59
2023/07/04 00:41:28;;;;;;;10.55;4.40;;;;;;;17.18;56.72;100202.91;4983784;28;20062;-59
2023/07/04 00:44:09;;;;;;;7.43;4.18;;;;;;;17.17;56.96;100196.75;4991757;28;20054;-58
2023/07/04 00:46:41;;;;;;;9.73;4.47;;;;;;;17.18;56.65;100197.59;5002958;28;20070;-59
2023/07/04 00:49:18;;;;;;;12.95;4.43;;;;;;;17.17;56.82;100202.06;5003032;28;20077;-59
2023/07/04 00:51:50;;;;;;;13.05;5.07;;;;;;;17.18;56.88;100201.09;4981871;28;20070;-61
2023/07/04 00:54:19;;;;;;;13.93;4.95;;;;;;;17.18;56.91;100193.09;4992470;28;21249;-60
2023/07/04 00:56:47;;;;;;;14.48;4.82;;;;;;;17.17;56.87;100202.06;4985649;28;20104;-56
2023/07/04 00:59:14;;;;;;;10.38;4.13;;;;;;;17.17;56.84;100204.72;4977488;28;20510;-57
2023/07/04 01:01:42;;;;;;;15.32;4.53;;;;;;;17.17;57.13;100202.06;4977714;28;20038;-59
2023/07/04 01:04:10;;;;;;;12.23;4.45;;;;;;;17.19;57.10;100201.91;4984466;28;20062;-59
2023/07/04 01:06:55;;;;;;;12.38;4.35;;;;;;;17.20;56.87;100203.59;4979980;28;20074;-60
2023/07/04 01:09:23;;;;;;;14.47;4.57;;;;;;;17.17;57.34;100196.75;4981869;28;20089;-58
2023/07/04 01:11:52;;;;;;;13.25;4.80;;;;;;;17.17;57.23;100199.41;4986816;28;20054;-57
2023/07/04 01:14:25;;;;;;;18.42;5.03;;;;;;;17.19;56.90;100193.94;4983134;28;20349;-59
2023/07/04 01:16:54;;;;;;;17.20;5.72;;;;;;;17.20;57.15;100201.78;4977990;28;20085;-58
2023/07/04 01:19:25;;;;;;;14.10;4.55;;;;;;;17.17;57.41;100202.06;4979933;28;20053;-54
2023/07/04 01:22:04;;;;;;;10.90;4.22;;;;;;;17.18;57.29;100201.09;4981463;28;20519;-57
2023/07/04 01:25:09;;;;;;;18.70;5.43;;;;;;;17.17;57.58;100196.75;4982197;28;20161;-57
2023/07/04 01:27:39;;;;;;;14.77;4.25;;;;;;;17.14;57.48;100191.72;4970471;28;20057;-58
2023/07/04 01:30:08;;;;;;;11.43;4.30;;;;;;;17.13;57.69;100184.72;4984297;28;20129;-58
2023/07/04 01:32:41;;;;;;;12.10;4.95;;;;;;;17.14;57.73;100188.22;4979570;28;20134;-57
2023/07/04 01:35:13;;;;;;;12.98;4.75;;;;;;;17.18;57.71;100190.44;4976741;28;20142;-56
2023/07/04 01:37:40;;;;;;;10.43;4.72;;;;;;;17.20;57.35;100198.28;4986673;28;20054;-58
2023/07/04 01:40:09;;;;;;;10.38;4.45;;;;;;;17.20;57.64;100192.94;4985311;28;20554;-60
2023/07/04 01:42:36;;;;;;;9.95;3.90;;;;;;;17.19;57.79;100189.47;4978493;28;20078;-58
2023/07/04 01:45:05;;;;;;;15.73;4.50;;;;;;;17.19;57.56;100188.63;4985620;28;20467;-58
2023/07/04 01:47:35;;;;;;;9.10;4.43;;;;;;;17.19;57.51;100191.28;4969209;28;20177;-58
2023/07/04 01:50:03;;;;;;;10.23;4.25;;;;;;;17.19;57.50;100188.63;4975297;28;20093;-56
2023/07/04 01:52:31;;;;;;;10.30;4.13;;;;;;;17.19;57.58;100178.81;4977193;28;20090;-59
2023/07/04 01:54:58;;;;;;;12.50;4.85;;;;;;;17.21;57.42;100186.66;4972298;28;20137;-57
2023/07/04 01:57:26;;;;;;;8.90;4.43;;;;;;;17.24;57.40;100188.19;4975794;28;20065;-58
2023/07/04 01:59:53;;;;;;;9.73;4.10;;;;;;;17.25;57.43;100197.88;4979896;28;20053;-60
2023/07/04 02:02:21;;;;;;;11.07;4.32;;;;;;;17.25;57.35;100193.38;4979128;28;20050;-57
2023/07/04 02:04:48;;;;;;;10.15;4.45;;;;;;;17.25;57.43;100192.56;4976685;28;20479;-58
2023/07/04 02:07:16;;;;;;;12.23;4.20;;;;;;;17.27;57.04;100193.22;4983467;28;20161;-58
2023/07/04 02:09:43;;;;;;;11.50;4.60;;;;;;;17.29;57.29;100199.22;4980319;28;20133;-59
2023/07/04 02:12:10;;;;;;;12.15;3.97;;;;;;;17.27;57.44;100190.56;4985073;28;20430;-58
2023/07/04 02:14:38;;;;;;;12.52;4.40;;;;;;;17.28;57.18;100195.75;4984774;28;20061;-57
2023/07/04 02:17:55;;;;;;;16.35;5.10;;;;;;;17.29;57.17;100188.59;4983060;28;20066;-58
2023/07/04 02:21:12;;;;;;;10.90;4.25;;;;;;;17.30;57.22;100192.94;4983499;28;20038;-60
2023/07/04 02:23:39;;;;;;;14.80;5.28;;;;;;;17.29;57.09;100188.59;4994705;28;20061;-61
2023/07/04 02:26:10;;;;;;;12.23;4.00;;;;;;;17.29;57.21;100188.59;4999360;28;20050;-59
2023/07/04 02:28:39;;;;;;;13.55;4.18;;;;;;;17.31;57.34;100200.78;4997325;28;20069;-57
2023/07/04 02:31:13;;;;;;;12.60;4.60;;;;;;;17.29;57.32;100200.09;4999290;28;20050;-60
2023/07/04 02:33:56;;;;;;;11.23;4.85;;;;;;;17.29;57.41;100185.94;4994017;28;20038;-57
2023/07/04 02:36:27;;;;;;;14.13;4.35;;;;;;;17.25;57.41;100195.22;4981864;28;20061;-60
2023/07/04 02:38:55;;;;;;;13.80;4.35;;;;;;;17.23;57.70;100198.00;4986681;28;20054;-59
2023/07/04 02:41:22;;;;;;;11.82;4.90;;;;;;;17.23;57.83;100191.84;5002902;28;20074;-58
2023/07/04 02:43:51;;;;;;;12.05;4.38;;;;;;;17.20;57.91;100196.47;4990279;28;20356;-59
2023/07/04 02:46:18;;;;;;;9.95;4.38;;;;;;;17.20;57.89;100191.16;4989487;28;20431;-58
2023/07/04 02:48:45;;;;;;;11.85;4.32;;;;;;;17.21;58.06;100192.81;4983477;28;20057;-58
2023/07/04 02:51:13;;;;;;;11.13;5.05;;;;;;;17.19;58.19;100194.78;4977707;28;20171;-60
2023/07/04 02:53:40;;;;;;;10.50;4.50;;;;;;;17.17;58.26;100204.72;4979655;28;20149;-59
2023/07/04 02:56:07;;;;;;;15.63;4.57;;;;;;;17.17;58.16;100199.41;4983988;28;20129;-58
2023/07/04 02:58:35;;;;;;;14.30;5.68;;;;;;;17.18;58.35;100205.56;4983019;28;20129;-58
2023/07/04 03:01:03;;;;;;;11.90;4.43;;;;;;;17.15;58.45;100197.88;4979402;28;20530;-58
2023/07/04 03:03:31;;;;;;;12.07;5.28;;;;;;;17.13;58.46;100198.03;4981804;28;20158;-58
2023/07/04 03:05:59;;;;;;;12.30;4.13;;;;;;;17.14;58.79;100196.19;4981862;28;20145;-59
2023/07/04 03:08:29;;;;;;;10.65;5.22;;;;;;;17.12;58.79;100206.16;4999059;28;20104;-60
2023/07/04 03:10:57;;;;;;;12.55;4.45;;;;;;;17.11;58.86;100196.47;4984226;28;20081;-60
2023/07/04 03:13:24;;;;;;;11.73;4.60;;;;;;;17.11;58.94;100199.13;4980906;28;20311;-59
2023/07/04 03:15:51;;;;;;;9.25;4.28;;;;;;;17.12;58.81;100200.84;4985619;28;20122;-58
2023/07/04 03:18:19;;;;;;;10.65;5.32;;;;;;;17.11;59.05;100200.00;4982941;28;20061;-62
2023/07/04 03:20:46;;;;;;;12.05;4.70;;;;;;;17.09;59.11;100195.78;4986826;28;20050;-58
2023/07/04 03:23:13;;;;;;;14.52;4.88;;;;;;;17.06;59.29;100204.03;4989286;28;20158;-58
2023/07/04 03:25:41;;;;;;;12.90;5.00;;;;;;;17.00;59.29;100197.47;4979298;28;20453;-60
2023/07/04 03:28:08;;;;;;;13.35;4.72;;;;;;;16.98;59.33;100209.25;4988749;28;20145;-58
2023/07/04 03:30:35;;;;;;;11.02;5.25;;;;;;;16.96;59.56;100209.38;4987271;28;20137;-56
2023/07/04 03:33:03;;;;;;;14.75;5.55;;;;;;;16.95;59.68;100213.84;4992107;28;20082;-57
2023/07/04 03:35:30;;;;;;;23.55;5.90;;;;;;;16.93;59.80;100214.97;4986125;28;20729;-57
2023/07/04 03:38:07;;;;;;;14.65;5.18;;;;;;;16.90;59.81;100209.94;4986704;28;20096;-57
2023/07/04 03:40:35;;;;;;;13.10;5.93;;;;;;;16.89;60.04;100216.25;4983890;28;20149;-58
2023/07/04 03:43:02;;;;;;;10.80;4.72;;;;;;;16.87;60.34;100215.53;4985771;28;20074;-59
2023/07/04 03:45:29;;;;;;;9.68;4.45;;;;;;;16.83;60.39;100219.47;4979697;28;20054;-57
2023/07/04 03:47:56;;;;;;;13.48;4.88;;;;;;;16.80;60.29;100217.94;4985015;28;20152;-63
2023/07/04 03:50:24;;;;;;;12.57;5.25;;;;;;;16.76;60.51;100216.53;4977904;28;20133;-58
2023/07/04 03:52:51;;;;;;;11.13;4.53;;;;;;;16.77;60.59;100220.88;4979194;28;20054;-60
2023/07/04 03:55:18;;;;;;;11.55;5.38;;;;;;;16.73;60.70;100223.94;4980103;28;20058;-57
2023/07/04 03:57:47;;;;;;;14.38;5.20;;;;;;;16.71;60.92;100226.72;4981968;28;20519;-59
2023/07/04 04:00:15;;;;;;;8.68;4.38;;;;;;;16.71;60.94;100222.25;4985687;28;20054;-62
2023/07/04 04:02:42;;;;;;;9.48;4.65;;;;;;;16.72;61.08;100228.44;4986717;28;20073;-63
2023/07/04 04:05:09;;;;;;;15.43;5.00;;;;;;;16.74;61.05;100236.25;4979732;28;20070;-58
2023/07/04 04:07:37;;;;;;;18.60;5.18;;;;;;;16.76;60.42;100229.00;4977038;28;20336;-59
2023/07/04 04:10:04;;;;;;;16.67;5.47;;;;;;;16.79;60.50;100240.16;4981164;28;20053;-58
2023/07/04 04:12:32;;;;;;;13.75;6.13;;;;;;;16.80;59.95;100241.88;4984972;28;20404;-56
2023/07/04 04:14:59;;;;;;;13.38;4.90;;;;;;;16.84;60.04;100253.03;4985133;28;20141;-59
2023/07/04 04:17:26;;;;;;;9.23;4.90;;;;;;;16.81;60.01;100256.81;4981712;28;20392;-57
2023/07/04 04:19:54;;;;;;;13.52;5.13;;;;;;;16.89;59.44;100238.38;4979732;28;20078;-60
2023/07/04 04:22:22;;;;;;;11.15;4.90;;;;;;;16.90;59.46;100253.31;4984753;28;20104;-59
2023/07/04 04:24:49;;;;;;;10.82;4.47;;;;;;;16.93;59.04;100246.88;4984539;28;20174;-60
2023/07/04 04:27:16;;;;;;;14.05;5.22;;;;;;;17.00;59.23;100253.31;4977877;28;20141;-59
2023/07/04 04:29:44;;;;;;;15.75;5.60;;;;;;;17.00;58.77;100263.97;4987496;28;20100;-60
2023/07/04 04:32:11;;;;;;;15.90;5.60;;;;;;;17.07;58.86;100267.75;4983290;28;20137;-58
2023/07/04 04:34:38;;;;;;;10.85;4.65;;;;;;;17.12;58.74;100260.19;4982041;28;20133;-58
2023/07/04 04:37:06;;;;;;;16.20;5.25;;;;;;;17.05;58.89;100261.72;4979198;28;20058;-58
2023/07/04 04:39:33;;;;;;;11.30;5.13;;;;;;;17.09;59.02;100268.44;4980625;28;20788;-58
2023/07/04 04:42:00;;;;;;;10.63;4.68;;;;;;;17.16;59.03;100271.38;4980376;28;20052;-63
2023/07/04 04:44:27;;;;;;;12.05;4.68;;;;;;;17.16;59.40;100274.03;4982379;28;20073;-58
2023/07/04 04:46:55;;;;;;;13.50;5.55;;;;;;;17.16;59.20;100274.03;4983544;28;20146;-57
2023/07/04 04:49:22;;;;;;;14.00;4.80;;;;;;;17.22;59.50;100273.47;4980430;28;20073;-60
2023/07/04 04:51:51;;;;;;;11.02;5.60;;;;;;;17.30;59.31;100283.41;4980226;28;20089;-60
2023/07/04 04:54:19;;;;;;;13.20;5.20;;;;;;;17.38;59.07;100286.19;4976016;28;20511;-62
2023/07/04 04:56:46;;;;;;;11.18;5.20;;;;;;;17.38;59.35;100287.03;4981559;28;20149;-58
2023/07/04 04:59:14;;;;;;;13.93;5.53;;;;;;;17.42;59.03;100293.72;4981199;28;20059;-58
2023/07/04 05:01:41;;;;;;;9.65;5.00;;;;;;;17.54;58.86;100301.56;4987777;28;20326;-58
2023/07/04 05:04:08;;;;;;;18.02;6.28;;;;;;;17.59;58.11;100294.81;4982028;28;20089;-59
2023/07/04 05:06:36;;;;;;;14.90;4.95;;;;;;;17.64;58.01;100295.22;4974117;28;20055;-58
2023/07/04 05:09:04;;;;;;;11.25;4.90;;;;;;;17.67;57.48;100308.25;4978910;28;20578;-58
2023/07/04 05:11:32;;;;;;;10.23;4.45;;;;;;;17.75;57.24;100315.56;4984675;28;20404;-57
2023/07/04 05:14:00;;;;;;;13.63;5.15;;;;;;;17.67;57.75;100313.59;4983385;28;20058;-62
2023/07/04 05:16:27;;;;;;;13.85;5.35;;;;;;;17.75;57.61;100309.41;4979789;28;20078;-58
2023/07/04 05:18:55;;;;;;;11.95;5.00;;;;;;;17.63;58.17;100304.22;4979716;28;20089;-59
2023/07/04 05:21:23;;;;;;;14.98;5.57;;;;;;;17.75;57.77;100301.44;4983497;28;20054;-60
2023/07/04 05:23:52;;;;;;;13.57;5.22;;;;;;;17.74;57.52;100308.53;4985980;28;20062;-59
2023/07/04 05:26:24;;;;;;;14.40;5.82;;;;;;;17.64;57.96;100310.38;4980454;28;20173;-59
2023/07/04 05:28:55;;;;;;;13.20;5.63;;;;;;;17.71;57.66;100316.81;4983216;28;20546;-57
2023/07/04 05:31:29;;;;;;;16.35;6.28;;;;;;;17.46;58.59;100315.59;4990176;28;20096;-59
2023/07/04 05:33:57;;;;;;;15.23;5.40;;;;;;;17.35;58.79;100334.38;4984431;28;20157;-59
2023/07/04 05:36:28;;;;;;;15.65;5.05;;;;;;;17.49;58.50;100323.28;4976473;28;20077;-58
2023/07/04 05:38:59;;;;;;;10.98;5.38;;;;;;;17.40;59.25;100324.97;4978218;28;20051;-54
2023/07/04 05:41:29;;;;;;;14.95;5.30;;;;;;;17.40;59.34;100327.63;4978584;28;20069;-58
2023/07/04 05:43:58;;;;;;;9.45;5.43;;;;;;;17.53;58.70;100334.50;4986514;28;20149;-56
2023/07/04 05:46:26;;;;;;;13.55;5.43;;;;;;;17.51;59.27;100334.63;4980262;28;20145;-57
2023/07/04 05:48:53;;;;;;;12.68;4.90;;;;;;;17.66;58.97;100340.38;4987271;28;20132;-58
2023/07/04 05:51:21;;;;;;;19.92;5.90;;;;;;;17.57;59.16;100347.38;4974720;28;20540;-57
2023/07/04 05:53:51;;;;;;;15.52;5.65;;;;;;;17.61;59.26;100369.25;4975347;28;20076;-56
2023/07/04 05:56:19;;;;;;;16.15;6.05;;;;;;;17.59;59.43;100366.69;4983572;28;20145;-59
2023/07/04 05:58:51;;;;;;;12.57;6.05;;;;;;;17.72;59.10;100353.09;4985955;28;20057;-58
2023/07/04 06:01:32;;;;;;;22.17;6.10;;;;;;;17.74;59.38;100355.63;4986091;28;20153;-59
2023/07/04 06:04:00;;;;;;;16.17;6.57;;;;;;;17.77;59.72;100355.34;4987686;28;20061;-55
2023/07/04 06:06:30;;;;;;;11.65;5.10;;;;;;;17.77;59.93;100342.88;4981650;28;20058;-58
2023/07/04 06:08:59;;;;;;;14.82;6.15;;;;;;;17.91;59.99;100341.59;4986764;28;20141;-57
2023/07/04 06:11:31;;;;;;;19.58;5.75;;;;;;;17.86;60.13;100344.69;4984121;28;20144;-57
2023/07/04 06:13:58;;;;;;;13.60;5.72;;;;;;;17.98;59.80;100347.19;4986575;28;20062;-58
2023/07/04 06:16:25;;;;;;;18.70;6.00;;;;;;;18.04;59.34;100350.09;4984485;28;20050;-58
2023/07/04 06:18:53;;;;;;;11.98;5.72;;;;;;;18.08;59.15;100358.63;4979326;28;20614;-60
2023/07/04 06:21:22;;;;;;;10.57;4.85;;;;;;;18.08;59.63;100361.31;4983855;28;20177;-58
2023/07/04 06:24:08;;;;;;;17.30;5.10;;;;;;;17.84;59.71;100386.59;4983530;28;20185;-59
2023/07/04 06:26:36;;;;;;;16.20;5.45;;;;;;;17.69;60.16;100382.66;4985459;28;20134;-59
2023/07/04 06:29:03;;;;;;;16.85;4.97;;;;;;;17.77;60.32;100377.50;4993759;28;20082;-60
2023/07/04 06:31:30;;;;;;;16.83;4.97;;;;;;;17.78;60.90;100375.66;4989205;28;20141;-59
2023/07/04 06:33:58;;;;;;;13.85;5.07;;;;;;;17.90;60.16;100386.03;4984182;28;20534;-58
2023/07/04 06:36:25;;;;;;;19.02;5.78;;;;;;;17.71;59.98;100397.50;4988838;28;20060;-58
2023/07/04 06:38:53;;;;;;;11.50;4.40;;;;;;;17.91;60.05;100397.50;4982791;28;20077;-58
2023/07/04 06:41:20;;;;;;;11.27;4.32;;;;;;;17.93;59.70;100395.56;4981991;28;20060;-59
2023/07/04 06:43:47;;;;;;;19.92;4.93;;;;;;;17.86;59.78;100386.44;4983260;28;20073;-59
2023/07/04 06:46:17;;;;;;;9.18;3.83;;;;;;;17.86;59.67;100395.28;4989328;28;20462;-59
2023/07/04 06:48:48;;;;;;;13.35;4.40;;;;;;;18.02;59.62;100399.19;4988994;28;20494;-58
2023/07/04 06:51:17;;;;;;;14.63;4.63;;;;;;;18.09;58.79;100395.78;4989132;28;20101;-59
2023/07/04 06:53:45;;;;;;;16.85;4.90;;;;;;;17.91;58.93;100400.16;4984067;28;20141;-58
2023/07/04 06:56:12;;;;;;;8.85;2.97;;;;;;;18.01;58.99;100413.47;4982848;28;20063;-58
2023/07/04 06:58:41;;;;;;;9.32;3.33;;;;;;;18.04;58.88;100402.53;4983626;28;20066;-58
2023/07/04 07:01:10;;;;;;;7.70;3.00;;;;;;;17.85;59.06;100398.94;4988870;28;20138;-59
2023/07/04 07:03:38;;;;;;;9.75;3.05;;;;;;;18.05;59.40;100413.03;4990422;28;20062;-60
2023/07/04 07:06:09;;;;;;;11.38;3.67;;;;;;;18.25;58.56;100424.50;4988839;28;20105;-59
2023/07/04 07:08:36;;;;;;;9.27;2.85;;;;;;;18.27;57.98;100405.69;4998670;28;20058;-58
2023/07/04 07:13:58;;;;;;;6.78;2.92;;;;;;;18.57;57.20;100418.78;4989957;28;20463;-57
2023/07/04 07:16:26;;;;;;;14.30;3.72;;;;;;;18.62;56.58;100437.81;4988482;28;20080;-58
2023/07/04 07:18:54;;;;;;;11.63;3.28;;;;;;;18.45;56.51;100426.09;4989029;28;20141;-58
2023/07/04 07:21:24;;;;;;;7.90;2.85;;;;;;;18.60;56.32;100431.81;4985545;28;20424;-59
2023/07/04 07:23:52;;;;;;;11.80;3.22;;;;;;;18.66;56.28;100425.06;4979102;28;20042;-58
2023/07/04 07:26:25;;;;;;;10.85;3.65;;;;;;;18.69;56.39;100446.97;4986486;28;20234;-59
2023/07/04 07:28:53;;;;;;;10.35;3.05;;;;;;;18.65;56.72;100437.53;4986667;28;20054;-58
2023/07/04 07:31:24;;;;;;;9.82;3.17;;;;;;;18.75;56.63;100432.19;4988207;28;20145;-59
2023/07/04 07:34:01;;;;;;;11.93;2.70;;;;;;;18.94;56.06;100444.59;4987561;28;20131;-58
2023/07/04 07:36:37;;;;;;;12.93;4.72;;;;;;;18.95;55.65;100448.94;4987877;28;20077;-58
2023/07/04 07:39:11;;;;;;;10.52;3.70;;;;;;;19.03;54.75;100435.69;4976704;28;20050;-58
2023/07/04 07:41:41;;;;;;;8.38;4.15;;;;;;;18.76;55.82;100444.53;4981977;28;20129;-58
2023/07/04 07:44:09;;;;;;;8.18;3.67;;;;;;;19.00;55.09;100459.16;4982833;28;20059;-58
2023/07/04 07:46:37;;;;;;;14.90;4.85;;;;;;;18.82;55.61;100433.28;4982544;28;20475;-58
2023/07/04 07:49:04;;;;;;;13.63;4.82;;;;;;;18.83;53.70;100426.97;4985261;28;20141;-58
2023/07/04 07:51:32;;;;;;;11.20;3.22;;;;;;;18.96;54.46;100439.97;4981964;28;20153;-58
2023/07/04 07:54:00;;;;;;;15.95;3.97;;;;;;;19.04;53.43;100439.19;4985828;28;20137;-60
2023/07/04 07:56:33;;;;;;;9.77;3.92;;;;;;;18.96;53.52;100429.28;4982689;28;20137;-60
2023/07/04 07:59:01;;;;;;;10.40;3.80;;;;;;;19.19;53.34;100435.88;4985373;28;20214;-60
2023/07/04 08:01:30;;;;;;;9.85;3.42;;;;;;;19.26;53.67;100437.94;4990174;28;20164;-56
2023/07/04 08:03:58;;;;;;;10.95;3.90;;;;;;;19.19;52.36;100449.22;4991161;28;20157;-58
2023/07/04 08:06:30;;;;;;;10.52;3.00;;;;;;;19.01;53.44;100440.34;4987760;28;20950;-57
2023/07/04 08:08:58;;;;;;;6.05;2.53;;;;;;;19.16;52.60;100457.50;4985022;28;20165;-53
2023/07/04 08:11:26;;;;;;;8.30;2.95;;;;;;;19.22;52.03;100456.06;5003092;28;20573;-57
2023/07/04 08:13:54;;;;;;;12.20;3.22;;;;;;;19.26;51.82;100451.28;4984993;28;20092;-56
2023/07/04 08:16:25;;;;;;;6.35;2.88;;;;;;;19.29;52.59;100453.66;4986405;28;20060;-57
2023/07/04 08:18:52;;;;;;;6.88;2.78;;;;;;;19.36;51.55;100460.03;4990362;28;20145;-58
2023/07/04 08:21:19;;;;;;;7.82;2.55;;;;;;;19.14;52.51;100462.19;4990992;28;20078;-57
2023/07/04 08:23:47;;;;;;;12.60;2.72;;;;;;;19.34;51.84;100451.38;4987721;28;20145;-57
2023/07/04 08:26:17;;;;;;;9.35;2.50;;;;;;;19.48;52.05;100464.19;4984427;28;20057;-58
2023/07/04 08:28:44;;;;;;;6.10;3.00;;;;;;;19.56;50.96;100464.28;4989295;28;20120;-59
2023/07/04 08:31:12;;;;;;;8.07;3.20;;;;;;;19.76;50.68;100456.13;4993819;28;20060;-59
2023/07/04 08:33:39;;;;;;;7.82;2.78;;;;;;;19.68;50.58;100447.06;4997744;28;20077;-59
2023/07/04 08:36:08;;;;;;;13.75;2.92;;;;;;;19.89;50.17;100453.91;4994400;28;20050;-60
2023/07/04 08:38:35;;;;;;;6.75;2.63;;;;;;;19.85;50.62;100447.19;4988627;28;20078;-57
2023/07/04 08:41:03;;;;;;;5.57;2.95;;;;;;;20.11;49.13;100455.25;4985852;28;20054;-58
2023/07/04 08:43:36;;;;;;;9.65;2.75;;;;;;;20.24;49.26;100445.81;4986531;28;20046;-58
2023/07/04 08:46:05;;;;;;;9.90;3.00;;;;;;;20.43;49.40;100449.25;5002034;28;20154;-59
2023/07/04 08:48:33;;;;;;;9.82;3.28;;;;;;;20.61;48.62;100458.06;4987347;28;20137;-59
2023/07/04 08:51:03;;;;;;;7.72;2.65;;;;;;;20.76;48.24;100449.44;4991736;28;20396;-62
2023/07/04 08:53:31;;;;;;;7.88;2.72;;;;;;;20.59;47.36;100467.28;4982872;28;20586;-59
2023/07/04 08:56:08;;;;;;;7.78;2.25;;;;;;;20.34;47.04;100463.56;4986547;28;20060;-59
2023/07/04 08:58:40;;;;;;;5.28;2.28;;;;;;;20.10;47.47;100483.81;4999925;28;20503;-57
2023/07/04 09:01:14;;;;;;;6.28;2.50;;;;;;;20.14;48.51;100457.59;4985732;28;20189;-56
2023/07/04 09:03:50;;;;;;;7.28;2.65;;;;;;;20.48;47.98;100463.03;4989393;28;20129;-59
2023/07/04 09:06:30;;;;;;;6.32;2.58;;;;;;;20.83;47.99;100472.75;5005022;28;20466;-59
2023/07/04 09:09:14;;;;;;;8.68;3.13;;;;;;;20.85;46.25;100475.25;4986132;28;20058;-59
2023/07/04 09:11:42;;;;;;;7.72;2.90;;;;;;;20.80;45.29;100466.84;4987277;28;20069;-59
2023/07/04 09:14:17;;;;;;;8.80;2.67;;;;;;;20.16;45.63;100464.47;4989528;28;20141;-57
2023/07/04 09:16:47;;;;;;;6.82;2.53;;;;;;;19.93;46.02;100469.47;4988317;28;20387;-58
2023/07/04 09:19:21;;;;;;;8.95;2.72;;;;;;;19.90;46.65;100468.94;4989696;28;20046;-58
2023/07/04 09:21:48;;;;;;;6.53;2.55;;;;;;;19.92;46.34;100462.44;4987052;28;20069;-58
2023/07/04 09:24:15;;;;;;;10.95;2.60;;;;;;;20.22;45.84;100469.19;4978634;28;20056;-57
2023/07/04 09:26:53;;;;;;;10.07;3.13;;;;;;;20.37;45.46;100469.44;4984035;28;20101;-58
2023/07/04 09:29:22;;;;;;;6.80;2.20;;;;;;;20.59;44.71;100477.97;4983317;28;20082;-57
2023/07/04 09:31:53;;;;;;;5.25;2.20;;;;;;;20.40;44.49;100487.88;5004748;28;20066;-57
2023/07/04 09:34:22;;;;;;;10.32;2.80;;;;;;;20.25;44.00;100486.75;4985952;28;20149;-58
2023/07/04 09:36:52;;;;;;;5.68;2.33;;;;;;;20.32;44.03;100479.78;4985771;28;20050;-56
2023/07/04 09:39:20;;;;;;;10.85;2.65;;;;;;;20.32;44.04;100473.59;4975509;28;20089;-56
2023/07/04 09:41:57;;;;;;;19.50;2.70;;;;;;;20.59;44.03;100477.97;4982835;28;20114;-59
2023/07/04 09:44:45;;;;;;;5.72;2.13;;;;;;;20.26;44.21;100461.69;4986254;28;20050;-57
2023/07/04 09:47:25;;;;;;;6.60;1.70;;;;;;;20.34;43.70;100483.13;4988221;28;20074;-59
2023/07/04 09:50:10;;;;;;;6.80;2.33;;;;;;;20.45;44.21;100474.03;4987905;28;20066;-58
2023/07/04 09:52:38;;;;;;;7.22;2.35;;;;;;;20.80;44.10;100488.25;4982155;28;20110;-57
2023/07/04 09:55:24;;;;;;;10.90;2.70;;;;;;;20.99;43.03;100483.53;4986386;28;20518;-58
2023/07/04 09:57:51;;;;;;;9.52;2.42;;;;;;;20.72;43.84;100495.28;4989995;28;21934;-58
2023/07/04 10:00:22;;;;;;;6.25;2.13;;;;;;;20.34;44.20;100504.50;4992763;28;20117;-58
2023/07/04 10:02:54;;;;;;;8.80;2.20;;;;;;;20.71;43.90;100500.75;4989670;28;20070;-59
2023/07/04 10:05:26;;;;;;;9.88;1.90;;;;;;;20.85;42.71;100484.13;5003288;28;20065;-58
2023/07/04 10:08:08;;;;;;;11.07;2.53;;;;;;;21.19;43.33;100486.75;4981132;28;20058;-57
2023/07/04 10:10:49;;;;;;;8.85;2.33;;;;;;;21.17;42.79;100488.78;4981835;28;20137;-57
2023/07/04 10:13:19;;;;;;;9.65;2.50;;;;;;;21.40;42.91;100490.88;4968549;28;20070;-57
2023/07/04 10:15:47;;;;;;;8.98;2.17;;;;;;;21.20;43.52;100487.59;4980456;28;20137;-58
2023/07/04 10:18:25;;;;;;;7.00;1.80;;;;;;;21.64;42.08;100500.78;4989256;28;20085;-61
2023/07/04 10:20:54;;;;;;;7.47;1.77;;;;;;;21.76;41.07;100496.78;4989144;28;20088;-59
2023/07/04 10:23:23;;;;;;;9.68;2.15;;;;;;;22.16;41.14;100504.03;4987161;28;20133;-58
2023/07/04 10:25:51;;;;;;;4.25;1.90;;;;;;;22.37;40.36;100497.31;4980814;28;20137;-58
2023/07/04 10:28:25;;;;;;;7.80;2.15;;;;;;;21.77;39.44;100505.66;4985421;28;20053;-56
2023/07/04 10:31:14;;;;;;;5.35;1.63;;;;;;;21.86;39.79;100508.19;4986623;28;20077;-59
2023/07/04 10:33:47;;;;;;;7.47;2.50;;;;;;;21.86;40.08;100516.22;4991060;28;20493;-57
2023/07/04 10:36:18;;;;;;;6.57;2.28;;;;;;;21.99;40.13;100507.69;5003899;28;20142;-59
2023/07/04 10:38:47;;;;;;;5.45;2.10;;;;;;;21.92;39.62;100504.00;4982538;28;20145;-58
2023/07/04 10:41:45;;;;;;;6.25;2.05;;;;;;;21.68;40.19;100513.69;4982169;28;20149;-58
2023/07/04 10:44:16;;;;;;;5.97;2.28;;;;;;;21.45;41.37;100500.09;4983521;28;20078;-58
2023/07/04 10:46:48;;;;;;;10.70;2.25;;;;;;;21.30;41.53;100506.19;4985676;28;20133;-57
2023/07/04 10:49:18;;;;;;;6.47;2.10;;;;;;;21.15;42.49;100488.06;4982792;28;20124;-58
2023/07/04 10:51:46;;;;;;;7.75;1.92;;;;;;;21.19;42.03;100502.81;5001160;28;20244;-57
2023/07/04 10:54:13;;;;;;;7.47;2.00;;;;;;;21.18;41.88;100503.81;4997008;28;20503;-58
2023/07/04 10:56:44;;;;;;;3.22;1.70;;;;;;;20.88;42.02;100489.16;4983792;28;20058;-58
2023/07/04 10:59:30;;;;;;;9.48;2.72;;;;;;;20.86;42.17;100498.34;4987202;28;20456;-58
2023/07/04 11:02:34;;;;;;;6.78;2.80;;;;;;;20.64;42.75;100511.28;4985671;28;20141;-56
2023/07/04 11:05:11;;;;;;;6.35;2.40;;;;;;;20.58;42.77;100503.88;4975902;28;20129;-57
2023/07/04 11:07:40;;;;;;;8.23;2.08;;;;;;;20.45;43.45;100508.78;4968197;28;20059;-61
2023/07/04 11:10:09;;;;;;;7.80;2.22;;;;;;;20.55;42.93;100506.03;4984424;28;20584;-59
2023/07/04 11:12:38;;;;;;;9.88;2.60;;;;;;;20.51;43.25;100508.19;4979480;28;20042;-56
2023/07/04 11:15:19;;;;;;;6.90;2.05;;;;;;;20.87;43.23;100510.72;4983818;28;20141;-57
2023/07/04 11:17:47;;;;;;;6.60;2.13;;;;;;;21.06;43.29;100513.13;4983500;28;20454;-56
2023/07/04 11:20:19;;;;;;;9.13;2.83;;;;;;;21.31;43.28;100503.41;4999640;28;20462;-57
2023/07/04 11:22:52;;;;;;;6.70;2.35;;;;;;;21.29;42.56;100524.09;4977138;28;20086;-57
2023/07/04 11:25:35;;;;;;;7.25;2.60;;;;;;;21.19;43.91;100510.03;4973027;28;20146;-56
2023/07/04 11:28:17;;;;;;;14.18;3.20;;;;;;;21.12;43.66;100523.22;4977912;28;20046;-58
2023/07/04 11:30:48;;;;;;;6.85;2.92;;;;;;;20.89;44.13;100511.38;4986804;28;20577;-56
2023/07/04 11:33:36;;;;;;;9.30;2.78;;;;;;;20.68;43.95;100507.28;4990824;28;20129;-59
2023/07/04 11:36:07;;;;;;;10.90;2.50;;;;;;;20.40;45.07;100514.59;4985352;28;20070;-59
2023/07/04 11:38:36;;;;;;;10.68;2.47;;;;;;;20.15;45.94;100521.59;4985402;28;20042;-57